sensor_id;sensor_type;location;lat;lon;timestamp;P1;durP1;ratioP1;P2;durP2;ratioP2
5945;SDS011;2998;48.206;16.394;2022-10-31T00:01:30;82.43;;;8.60;;
5945;SDS011;2998;48.206;16.394;2022-10-31T00:04:01;113.67;;;10.77;;
5945;SDS011;2998;48.206;16.394;2022-10-31T00:06:29;174.67;;;14.33;;
5945;SDS011;2998;48.206;16.394;2022-10-31T00:08:58;31.43;;;7.33;;
5945;SDS011;2998;48.206;16.394;2022-10-31T00:11:27;11.63;;;7.60;;
5945;SDS011;2998;48.206;16.394;2022-10-31T00:13:56;14.40;;;7.80;;
5945;SDS011;2998;48.206;16.394;2022-10-31T00:16:24;24.37;;;6.83;;
5945;SDS011;2998;48.206;16.394;2022-10-31T00:18:53;27.60;;;7.10;;
5945;SDS011;2998;48.206;16.394;2022-10-31T00:21:25;58.40;;;7.13;;
5945;SDS011;2998;48.206;16.394;2022-10-31T00:23:53;32.23;;;6.50;;
5945;SDS011;2998;48.206;16.394;2022-10-31T00:26:21;7.57;;;5.97;;
5945;SDS011;2998;48.206;16.394;2022-10-31T00:28:49;31.37;;;7.33;;
5945;SDS011;2998;48.206;16.394;2022-10-31T00:31:17;32.23;;;7.87;;
5945;SDS011;2998;48.206;16.394;2022-10-31T00:33:45;28.33;;;8.37;;
5945;SDS011;2998;48.206;16.394;2022-10-31T00:36:14;39.13;;;6.57;;
5945;SDS011;2998;48.206;16.394;2022-10-31T00:38:45;26.77;;;6.10;;
5945;SDS011;2998;48.206;16.394;2022-10-31T00:41:14;53.20;;;6.40;;
5945;SDS011;2998;48.206;16.394;2022-10-31T00:43:43;56.30;;;6.47;;
5945;SDS011;2998;48.206;16.394;2022-10-31T00:46:11;9.20;;;5.80;;
5945;SDS011;2998;48.206;16.394;2022-10-31T00:48:39;11.93;;;7.00;;
5945;SDS011;2998;48.206;16.394;2022-10-31T00:51:07;27.93;;;11.00;;
5945;SDS011;2998;48.206;16.394;2022-10-31T00:53:36;53.30;;;10.27;;
5945;SDS011;2998;48.206;16.394;2022-10-31T00:56:05;28.50;;;9.10;;
5945;SDS011;2998;48.206;16.394;2022-10-31T00:58:34;46.63;;;7.60;;
5945;SDS011;2998;48.206;16.394;2022-10-31T01:01:02;33.00;;;9.77;;
5945;SDS011;2998;48.206;16.394;2022-10-31T01:03:31;20.07;;;6.90;;
5945;SDS011;2998;48.206;16.394;2022-10-31T01:06:00;23.90;;;5.73;;
5945;SDS011;2998;48.206;16.394;2022-10-31T01:08:30;43.43;;;6.80;;
5945;SDS011;2998;48.206;16.394;2022-10-31T01:10:59;16.10;;;6.90;;
5945;SDS011;2998;48.206;16.394;2022-10-31T01:13:29;35.43;;;7.47;;
5945;SDS011;2998;48.206;16.394;2022-10-31T01:15:57;60.27;;;7.30;;
5945;SDS011;2998;48.206;16.394;2022-10-31T01:18:25;36.97;;;6.50;;
5945;SDS011;2998;48.206;16.394;2022-10-31T01:20:57;37.87;;;6.27;;
5945;SDS011;2998;48.206;16.394;2022-10-31T01:23:28;48.43;;;6.27;;
5945;SDS011;2998;48.206;16.394;2022-10-31T01:26:07;34.40;;;6.63;;
5945;SDS011;2998;48.206;16.394;2022-10-31T01:28:38;41.70;;;6.87;;
5945;SDS011;2998;48.206;16.394;2022-10-31T01:31:10;20.37;;;6.23;;
5945;SDS011;2998;48.206;16.394;2022-10-31T01:33:38;25.37;;;6.50;;
5945;SDS011;2998;48.206;16.394;2022-10-31T01:36:16;12.77;;;5.73;;
5945;SDS011;2998;48.206;16.394;2022-10-31T01:38:45;18.70;;;6.00;;
5945;SDS011;2998;48.206;16.394;2022-10-31T01:41:13;8.60;;;5.43;;
5945;SDS011;2998;48.206;16.394;2022-10-31T01:43:47;7.60;;;4.80;;
5945;SDS011;2998;48.206;16.394;2022-10-31T01:46:21;5.03;;;4.60;;
5945;SDS011;2998;48.206;16.394;2022-10-31T01:48:51;7.47;;;5.00;;
5945;SDS011;2998;48.206;16.394;2022-10-31T01:51:21;5.90;;;5.33;;
5945;SDS011;2998;48.206;16.394;2022-10-31T01:53:52;9.60;;;5.83;;
5945;SDS011;2998;48.206;16.394;2022-10-31T01:56:23;11.90;;;5.87;;
5945;SDS011;2998;48.206;16.394;2022-10-31T01:58:53;8.70;;;5.20;;
5945;SDS011;2998;48.206;16.394;2022-10-31T02:01:22;5.50;;;5.10;;
5945;SDS011;2998;48.206;16.394;2022-10-31T02:03:50;4.70;;;4.40;;
5945;SDS011;2998;48.206;16.394;2022-10-31T02:06:21;5.50;;;5.00;;
5945;SDS011;2998;48.206;16.394;2022-10-31T02:08:54;5.17;;;4.67;;
5945;SDS011;2998;48.206;16.394;2022-10-31T02:11:23;6.17;;;5.60;;
5945;SDS011;2998;48.206;16.394;2022-10-31T02:13:52;7.17;;;6.50;;
5945;SDS011;2998;48.206;16.394;2022-10-31T02:16:20;7.40;;;5.90;;
5945;SDS011;2998;48.206;16.394;2022-10-31T02:18:48;5.63;;;5.13;;
5945;SDS011;2998;48.206;16.394;2022-10-31T02:21:17;3.97;;;3.70;;
5945;SDS011;2998;48.206;16.394;2022-10-31T02:24:03;3.80;;;3.60;;
5945;SDS011;2998;48.206;16.394;2022-10-31T02:29:42;3.50;;;3.30;;
5945;SDS011;2998;48.206;16.394;2022-10-31T02:32:20;3.70;;;3.40;;
5945;SDS011;2998;48.206;16.394;2022-10-31T02:34:51;4.10;;;3.80;;
5945;SDS011;2998;48.206;16.394;2022-10-31T02:37:23;3.90;;;3.70;;
5945;SDS011;2998;48.206;16.394;2022-10-31T02:39:54;4.03;;;3.73;;
5945;SDS011;2998;48.206;16.394;2022-10-31T02:42:26;4.10;;;3.80;;
5945;SDS011;2998;48.206;16.394;2022-10-31T02:44:58;4.30;;;3.90;;
5945;SDS011;2998;48.206;16.394;2022-10-31T02:47:32;3.63;;;3.40;;
5945;SDS011;2998;48.206;16.394;2022-10-31T02:50:02;4.93;;;4.63;;
5945;SDS011;2998;48.206;16.394;2022-10-31T02:52:34;4.07;;;3.87;;
5945;SDS011;2998;48.206;16.394;2022-10-31T02:55:12;4.10;;;3.90;;
5945;SDS011;2998;48.206;16.394;2022-10-31T02:58:13;8.77;;;4.47;;
5945;SDS011;2998;48.206;16.394;2022-10-31T03:00:45;4.33;;;4.03;;
5945;SDS011;2998;48.206;16.394;2022-10-31T03:03:22;6.20;;;4.60;;
5945;SDS011;2998;48.206;16.394;2022-10-31T03:05:55;4.37;;;4.07;;
5945;SDS011;2998;48.206;16.394;2022-10-31T03:08:29;4.90;;;4.60;;
5945;SDS011;2998;48.206;16.394;2022-10-31T03:11:02;4.60;;;4.30;;
5945;SDS011;2998;48.206;16.394;2022-10-31T03:13:32;5.97;;;5.50;;
5945;SDS011;2998;48.206;16.394;2022-10-31T03:16:05;6.43;;;5.77;;
5945;SDS011;2998;48.206;16.394;2022-10-31T03:18:37;6.27;;;5.67;;
5945;SDS011;2998;48.206;16.394;2022-10-31T03:21:08;7.00;;;5.90;;
5945;SDS011;2998;48.206;16.394;2022-10-31T03:23:38;6.70;;;6.20;;
5945;SDS011;2998;48.206;16.394;2022-10-31T03:26:08;6.10;;;5.20;;
5945;SDS011;2998;48.206;16.394;2022-10-31T03:28:38;6.40;;;5.40;;
5945;SDS011;2998;48.206;16.394;2022-10-31T03:31:09;6.50;;;5.93;;
5945;SDS011;2998;48.206;16.394;2022-10-31T03:33:37;5.77;;;5.30;;
5945;SDS011;2998;48.206;16.394;2022-10-31T03:36:07;5.17;;;4.83;;
5945;SDS011;2998;48.206;16.394;2022-10-31T03:38:36;5.20;;;4.80;;
5945;SDS011;2998;48.206;16.394;2022-10-31T03:41:05;5.57;;;5.07;;
5945;SDS011;2998;48.206;16.394;2022-10-31T03:43:38;5.83;;;4.70;;
5945;SDS011;2998;48.206;16.394;2022-10-31T03:46:09;5.37;;;4.80;;
5945;SDS011;2998;48.206;16.394;2022-10-31T03:48:37;6.67;;;6.00;;
5945;SDS011;2998;48.206;16.394;2022-10-31T03:51:06;5.30;;;4.90;;
5945;SDS011;2998;48.206;16.394;2022-10-31T03:53:38;5.20;;;4.90;;
5945;SDS011;2998;48.206;16.394;2022-10-31T03:56:11;5.83;;;5.33;;
5945;SDS011;2998;48.206;16.394;2022-10-31T03:58:44;5.90;;;5.40;;
5945;SDS011;2998;48.206;16.394;2022-10-31T04:01:15;5.73;;;5.20;;
5945;SDS011;2998;48.206;16.394;2022-10-31T04:03:44;6.47;;;5.27;;
5945;SDS011;2998;48.206;16.394;2022-10-31T04:06:13;4.40;;;4.10;;
5945;SDS011;2998;48.206;16.394;2022-10-31T04:08:43;7.20;;;4.40;;
5945;SDS011;2998;48.206;16.394;2022-10-31T04:11:14;5.13;;;4.70;;
5945;SDS011;2998;48.206;16.394;2022-10-31T04:13:44;4.63;;;4.33;;
5945;SDS011;2998;48.206;16.394;2022-10-31T04:16:13;4.33;;;3.97;;
5945;SDS011;2998;48.206;16.394;2022-10-31T04:18:42;4.83;;;4.60;;
5945;SDS011;2998;48.206;16.394;2022-10-31T04:21:11;3.73;;;3.53;;
5945;SDS011;2998;48.206;16.394;2022-10-31T04:23:38;4.20;;;4.00;;
5945;SDS011;2998;48.206;16.394;2022-10-31T04:26:07;3.80;;;3.50;;
5945;SDS011;2998;48.206;16.394;2022-10-31T04:28:37;4.10;;;3.73;;
5945;SDS011;2998;48.206;16.394;2022-10-31T04:31:05;4.70;;;4.40;;
5945;SDS011;2998;48.206;16.394;2022-10-31T04:33:33;3.73;;;3.53;;
5945;SDS011;2998;48.206;16.394;2022-10-31T04:36:01;8.00;;;5.20;;
5945;SDS011;2998;48.206;16.394;2022-10-31T04:38:29;5.50;;;5.00;;
5945;SDS011;2998;48.206;16.394;2022-10-31T04:40:57;4.93;;;4.63;;
5945;SDS011;2998;48.206;16.394;2022-10-31T04:43:24;5.00;;;4.70;;
5945;SDS011;2998;48.206;16.394;2022-10-31T04:45:54;4.33;;;3.93;;
5945;SDS011;2998;48.206;16.394;2022-10-31T04:48:22;4.13;;;3.73;;
5945;SDS011;2998;48.206;16.394;2022-10-31T04:50:50;4.70;;;4.00;;
5945;SDS011;2998;48.206;16.394;2022-10-31T04:53:17;4.63;;;3.90;;
5945;SDS011;2998;48.206;16.394;2022-10-31T04:55:45;5.03;;;3.73;;
5945;SDS011;2998;48.206;16.394;2022-10-31T04:58:13;4.13;;;3.83;;
5945;SDS011;2998;48.206;16.394;2022-10-31T05:00:42;4.30;;;4.00;;
5945;SDS011;2998;48.206;16.394;2022-10-31T05:03:11;5.07;;;3.80;;
5945;SDS011;2998;48.206;16.394;2022-10-31T05:05:39;7.00;;;5.40;;
5945;SDS011;2998;48.206;16.394;2022-10-31T05:08:09;8.13;;;5.80;;
5945;SDS011;2998;48.206;16.394;2022-10-31T05:10:37;5.20;;;4.80;;
5945;SDS011;2998;48.206;16.394;2022-10-31T05:13:04;6.47;;;5.57;;
5945;SDS011;2998;48.206;16.394;2022-10-31T05:15:33;9.40;;;6.93;;
5945;SDS011;2998;48.206;16.394;2022-10-31T05:18:01;13.77;;;7.90;;
5945;SDS011;2998;48.206;16.394;2022-10-31T05:20:31;10.50;;;8.30;;
5945;SDS011;2998;48.206;16.394;2022-10-31T05:22:59;23.20;;;13.90;;
5945;SDS011;2998;48.206;16.394;2022-10-31T05:25:27;19.90;;;12.60;;
5945;SDS011;2998;48.206;16.394;2022-10-31T05:27:56;18.53;;;12.03;;
5945;SDS011;2998;48.206;16.394;2022-10-31T05:30:26;12.00;;;9.20;;
5945;SDS011;2998;48.206;16.394;2022-10-31T05:32:55;13.43;;;8.80;;
5945;SDS011;2998;48.206;16.394;2022-10-31T05:35:24;12.47;;;9.60;;
5945;SDS011;2998;48.206;16.394;2022-10-31T05:37:55;29.83;;;15.80;;
5945;SDS011;2998;48.206;16.394;2022-10-31T05:40:24;34.93;;;18.50;;
5945;SDS011;2998;48.206;16.394;2022-10-31T05:42:53;28.47;;;15.57;;
5945;SDS011;2998;48.206;16.394;2022-10-31T05:45:23;24.43;;;12.70;;
5945;SDS011;2998;48.206;16.394;2022-10-31T05:47:51;19.43;;;11.73;;
5945;SDS011;2998;48.206;16.394;2022-10-31T05:50:19;16.97;;;10.80;;
5945;SDS011;2998;48.206;16.394;2022-10-31T05:52:53;13.47;;;9.50;;
5945;SDS011;2998;48.206;16.394;2022-10-31T05:55:23;10.37;;;7.80;;
5945;SDS011;2998;48.206;16.394;2022-10-31T05:57:51;10.30;;;7.80;;
5945;SDS011;2998;48.206;16.394;2022-10-31T06:00:20;9.23;;;6.83;;
5945;SDS011;2998;48.206;16.394;2022-10-31T06:02:48;11.07;;;7.43;;
5945;SDS011;2998;48.206;16.394;2022-10-31T06:05:16;6.80;;;6.10;;
5945;SDS011;2998;48.206;16.394;2022-10-31T06:07:44;19.43;;;9.10;;
5945;SDS011;2998;48.206;16.394;2022-10-31T06:10:14;8.63;;;7.70;;
5945;SDS011;2998;48.206;16.394;2022-10-31T06:12:42;8.00;;;6.53;;
5945;SDS011;2998;48.206;16.394;2022-10-31T06:15:10;10.90;;;7.43;;
5945;SDS011;2998;48.206;16.394;2022-10-31T06:17:38;10.50;;;6.57;;
5945;SDS011;2998;48.206;16.394;2022-10-31T06:20:07;19.37;;;7.40;;
5945;SDS011;2998;48.206;16.394;2022-10-31T06:22:35;15.90;;;7.63;;
5945;SDS011;2998;48.206;16.394;2022-10-31T06:25:03;10.10;;;8.13;;
5945;SDS011;2998;48.206;16.394;2022-10-31T06:27:33;18.83;;;12.27;;
5945;SDS011;2998;48.206;16.394;2022-10-31T06:30:01;12.43;;;9.70;;
5945;SDS011;2998;48.206;16.394;2022-10-31T06:32:29;15.47;;;9.60;;
5945;SDS011;2998;48.206;16.394;2022-10-31T06:34:56;12.77;;;8.30;;
5945;SDS011;2998;48.206;16.394;2022-10-31T06:37:24;15.50;;;8.10;;
5945;SDS011;2998;48.206;16.394;2022-10-31T06:39:52;11.97;;;8.70;;
5945;SDS011;2998;48.206;16.394;2022-10-31T06:42:20;25.10;;;20.30;;
5945;SDS011;2998;48.206;16.394;2022-10-31T06:44:49;24.70;;;13.80;;
5945;SDS011;2998;48.206;16.394;2022-10-31T06:47:17;24.10;;;12.17;;
5945;SDS011;2998;48.206;16.394;2022-10-31T06:49:45;16.33;;;10.67;;
5945;SDS011;2998;48.206;16.394;2022-10-31T06:52:13;18.70;;;9.23;;
5945;SDS011;2998;48.206;16.394;2022-10-31T06:54:41;11.50;;;7.00;;
5945;SDS011;2998;48.206;16.394;2022-10-31T06:57:09;28.80;;;18.93;;
5945;SDS011;2998;48.206;16.394;2022-10-31T06:59:37;30.00;;;20.63;;
5945;SDS011;2998;48.206;16.394;2022-10-31T07:02:07;21.37;;;16.03;;
5945;SDS011;2998;48.206;16.394;2022-10-31T07:04:35;237.90;;;185.93;;
5945;SDS011;2998;48.206;16.394;2022-10-31T07:07:03;152.40;;;115.00;;
5945;SDS011;2998;48.206;16.394;2022-10-31T07:09:34;47.27;;;35.83;;
5945;SDS011;2998;48.206;16.394;2022-10-31T07:12:02;29.67;;;15.30;;
5945;SDS011;2998;48.206;16.394;2022-10-31T07:14:30;41.37;;;18.53;;
5945;SDS011;2998;48.206;16.394;2022-10-31T07:16:58;23.53;;;13.97;;
5945;SDS011;2998;48.206;16.394;2022-10-31T07:19:27;18.30;;;13.60;;
5945;SDS011;2998;48.206;16.394;2022-10-31T07:21:55;29.37;;;22.33;;
5945;SDS011;2998;48.206;16.394;2022-10-31T07:24:24;45.67;;;32.93;;
5945;SDS011;2998;48.206;16.394;2022-10-31T07:26:52;69.50;;;55.90;;
5945;SDS011;2998;48.206;16.394;2022-10-31T07:29:21;44.03;;;28.50;;
5945;SDS011;2998;48.206;16.394;2022-10-31T07:31:49;152.80;;;109.77;;
5945;SDS011;2998;48.206;16.394;2022-10-31T07:34:17;144.53;;;102.33;;
5945;SDS011;2998;48.206;16.394;2022-10-31T07:36:46;61.77;;;46.87;;
5945;SDS011;2998;48.206;16.394;2022-10-31T07:39:14;150.77;;;112.70;;
5945;SDS011;2998;48.206;16.394;2022-10-31T07:41:42;140.97;;;103.77;;
5945;SDS011;2998;48.206;16.394;2022-10-31T07:44:10;85.60;;;59.40;;
5945;SDS011;2998;48.206;16.394;2022-10-31T07:46:38;58.23;;;43.17;;
5945;SDS011;2998;48.206;16.394;2022-10-31T07:49:05;24.70;;;16.30;;
5945;SDS011;2998;48.206;16.394;2022-10-31T07:51:33;18.43;;;12.40;;
5945;SDS011;2998;48.206;16.394;2022-10-31T07:54:03;21.93;;;13.20;;
5945;SDS011;2998;48.206;16.394;2022-10-31T07:56:31;20.10;;;9.97;;
5945;SDS011;2998;48.206;16.394;2022-10-31T07:58:59;14.33;;;8.90;;
5945;SDS011;2998;48.206;16.394;2022-10-31T08:01:26;22.40;;;9.37;;
5945;SDS011;2998;48.206;16.394;2022-10-31T08:03:54;18.57;;;8.77;;
5945;SDS011;2998;48.206;16.394;2022-10-31T08:06:22;18.23;;;7.57;;
5945;SDS011;2998;48.206;16.394;2022-10-31T08:08:50;15.47;;;8.53;;
5945;SDS011;2998;48.206;16.394;2022-10-31T08:11:19;15.00;;;7.93;;
5945;SDS011;2998;48.206;16.394;2022-10-31T08:13:47;11.60;;;7.80;;
5945;SDS011;2998;48.206;16.394;2022-10-31T08:16:15;13.90;;;8.57;;
5945;SDS011;2998;48.206;16.394;2022-10-31T08:18:43;12.10;;;6.63;;
5945;SDS011;2998;48.206;16.394;2022-10-31T08:21:11;8.33;;;5.80;;
5945;SDS011;2998;48.206;16.394;2022-10-31T08:23:39;53.63;;;31.20;;
5945;SDS011;2998;48.206;16.394;2022-10-31T08:26:07;22.20;;;9.50;;
5945;SDS011;2998;48.206;16.394;2022-10-31T08:28:37;10.73;;;6.03;;
5945;SDS011;2998;48.206;16.394;2022-10-31T08:31:04;16.93;;;10.07;;
5945;SDS011;2998;48.206;16.394;2022-10-31T08:33:33;14.00;;;5.97;;
5945;SDS011;2998;48.206;16.394;2022-10-31T08:36:01;13.60;;;6.37;;
5945;SDS011;2998;48.206;16.394;2022-10-31T08:38:29;17.50;;;6.60;;
5945;SDS011;2998;48.206;16.394;2022-10-31T08:40:57;17.17;;;8.17;;
5945;SDS011;2998;48.206;16.394;2022-10-31T08:43:24;10.07;;;8.93;;
5945;SDS011;2998;48.206;16.394;2022-10-31T08:45:54;15.57;;;8.73;;
5945;SDS011;2998;48.206;16.394;2022-10-31T08:48:22;13.07;;;9.00;;
5945;SDS011;2998;48.206;16.394;2022-10-31T08:50:50;29.07;;;13.90;;
5945;SDS011;2998;48.206;16.394;2022-10-31T08:53:18;20.67;;;8.83;;
5945;SDS011;2998;48.206;16.394;2022-10-31T08:55:46;13.60;;;6.73;;
5945;SDS011;2998;48.206;16.394;2022-10-31T08:58:15;14.30;;;6.73;;
5945;SDS011;2998;48.206;16.394;2022-10-31T09:00:44;6.70;;;6.10;;
5945;SDS011;2998;48.206;16.394;2022-10-31T09:03:14;7.23;;;5.50;;
5945;SDS011;2998;48.206;16.394;2022-10-31T09:05:42;9.67;;;6.00;;
5945;SDS011;2998;48.206;16.394;2022-10-31T09:08:12;9.00;;;5.43;;
5945;SDS011;2998;48.206;16.394;2022-10-31T09:10:42;12.50;;;4.77;;
5945;SDS011;2998;48.206;16.394;2022-10-31T09:13:12;14.90;;;7.10;;
5945;SDS011;2998;48.206;16.394;2022-10-31T09:15:42;21.57;;;8.80;;
5945;SDS011;2998;48.206;16.394;2022-10-31T09:18:11;27.27;;;9.63;;
5945;SDS011;2998;48.206;16.394;2022-10-31T09:20:42;6.37;;;4.60;;
5945;SDS011;2998;48.206;16.394;2022-10-31T09:23:11;8.73;;;4.80;;
5945;SDS011;2998;48.206;16.394;2022-10-31T09:25:40;7.13;;;4.33;;
5945;SDS011;2998;48.206;16.394;2022-10-31T09:28:16;7.03;;;4.23;;
5945;SDS011;2998;48.206;16.394;2022-10-31T09:30:45;6.70;;;4.67;;
5945;SDS011;2998;48.206;16.394;2022-10-31T09:33:15;8.20;;;4.40;;
5945;SDS011;2998;48.206;16.394;2022-10-31T09:35:43;6.10;;;4.07;;
5945;SDS011;2998;48.206;16.394;2022-10-31T09:38:12;4.47;;;4.03;;
5945;SDS011;2998;48.206;16.394;2022-10-31T09:40:41;14.73;;;3.97;;
5945;SDS011;2998;48.206;16.394;2022-10-31T09:43:14;5.80;;;3.50;;
5945;SDS011;2998;48.206;16.394;2022-10-31T09:45:47;5.47;;;4.10;;
5945;SDS011;2998;48.206;16.394;2022-10-31T09:48:40;4.83;;;3.50;;
5945;SDS011;2998;48.206;16.394;2022-10-31T09:51:15;5.10;;;3.47;;
5945;SDS011;2998;48.206;16.394;2022-10-31T09:53:46;5.93;;;3.80;;
5945;SDS011;2998;48.206;16.394;2022-10-31T09:56:18;4.73;;;3.40;;
5945;SDS011;2998;48.206;16.394;2022-10-31T09:58:49;8.03;;;3.00;;
5945;SDS011;2998;48.206;16.394;2022-10-31T10:01:28;8.07;;;3.70;;
5945;SDS011;2998;48.206;16.394;2022-10-31T10:04:01;5.60;;;3.50;;
5945;SDS011;2998;48.206;16.394;2022-10-31T10:06:32;12.97;;;3.73;;
5945;SDS011;2998;48.206;16.394;2022-10-31T10:09:02;4.03;;;3.00;;
5945;SDS011;2998;48.206;16.394;2022-10-31T10:11:33;8.80;;;3.30;;
5945;SDS011;2998;48.206;16.394;2022-10-31T10:14:13;3.67;;;3.33;;
5945;SDS011;2998;48.206;16.394;2022-10-31T10:16:52;4.93;;;3.77;;
5945;SDS011;2998;48.206;16.394;2022-10-31T10:19:33;4.83;;;3.50;;
5945;SDS011;2998;48.206;16.394;2022-10-31T10:22:14;5.87;;;3.57;;
5945;SDS011;2998;48.206;16.394;2022-10-31T10:24:58;4.53;;;4.00;;
5945;SDS011;2998;48.206;16.394;2022-10-31T10:27:34;3.63;;;2.93;;
5945;SDS011;2998;48.206;16.394;2022-10-31T10:30:30;4.60;;;3.10;;
5945;SDS011;2998;48.206;16.394;2022-10-31T10:33:02;4.73;;;3.10;;
5945;SDS011;2998;48.206;16.394;2022-10-31T10:35:38;5.10;;;3.20;;
5945;SDS011;2998;48.206;16.394;2022-10-31T10:38:10;5.83;;;3.23;;
5945;SDS011;2998;48.206;16.394;2022-10-31T10:40:42;4.93;;;2.70;;
5945;SDS011;2998;48.206;16.394;2022-10-31T10:43:21;3.87;;;3.17;;
5945;SDS011;2998;48.206;16.394;2022-10-31T10:45:53;2.80;;;2.60;;
5945;SDS011;2998;48.206;16.394;2022-10-31T10:48:44;5.50;;;3.00;;
5945;SDS011;2998;48.206;16.394;2022-10-31T10:51:18;7.40;;;3.07;;
5945;SDS011;2998;48.206;16.394;2022-10-31T10:54:15;7.03;;;3.63;;
5945;SDS011;2998;48.206;16.394;2022-10-31T10:56:51;4.03;;;3.40;;
5945;SDS011;2998;48.206;16.394;2022-10-31T10:59:24;6.70;;;3.40;;
5945;SDS011;2998;48.206;16.394;2022-10-31T11:01:52;7.07;;;3.57;;
5945;SDS011;2998;48.206;16.394;2022-10-31T11:04:25;5.17;;;2.90;;
5945;SDS011;2998;48.206;16.394;2022-10-31T11:06:58;11.10;;;3.50;;
5945;SDS011;2998;48.206;16.394;2022-10-31T11:09:26;5.53;;;3.90;;
5945;SDS011;2998;48.206;16.394;2022-10-31T11:11:55;3.80;;;3.40;;
5945;SDS011;2998;48.206;16.394;2022-10-31T11:14:23;4.30;;;3.60;;
5945;SDS011;2998;48.206;16.394;2022-10-31T11:16:54;6.13;;;3.63;;
5945;SDS011;2998;48.206;16.394;2022-10-31T11:19:34;4.43;;;3.87;;
5945;SDS011;2998;48.206;16.394;2022-10-31T11:22:07;4.63;;;3.87;;
5945;SDS011;2998;48.206;16.394;2022-10-31T11:24:37;5.67;;;4.50;;
5945;SDS011;2998;48.206;16.394;2022-10-31T11:27:11;4.47;;;3.90;;
5945;SDS011;2998;48.206;16.394;2022-10-31T11:29:41;5.00;;;4.60;;
5945;SDS011;2998;48.206;16.394;2022-10-31T11:32:15;8.80;;;4.13;;
5945;SDS011;2998;48.206;16.394;2022-10-31T11:34:47;9.40;;;5.17;;
5945;SDS011;2998;48.206;16.394;2022-10-31T11:37:18;5.07;;;4.40;;
5945;SDS011;2998;48.206;16.394;2022-10-31T11:39:49;6.00;;;5.00;;
5945;SDS011;2998;48.206;16.394;2022-10-31T11:42:20;7.97;;;4.93;;
5945;SDS011;2998;48.206;16.394;2022-10-31T11:44:49;10.43;;;4.73;;
5945;SDS011;2998;48.206;16.394;2022-10-31T11:47:21;7.93;;;5.33;;
5945;SDS011;2998;48.206;16.394;2022-10-31T11:49:53;9.83;;;5.13;;
5945;SDS011;2998;48.206;16.394;2022-10-31T11:52:24;8.80;;;4.70;;
5945;SDS011;2998;48.206;16.394;2022-10-31T11:54:54;10.40;;;5.33;;
5945;SDS011;2998;48.206;16.394;2022-10-31T11:57:23;12.80;;;5.83;;
5945;SDS011;2998;48.206;16.394;2022-10-31T11:59:53;11.37;;;5.60;;
5945;SDS011;2998;48.206;16.394;2022-10-31T12:02:22;6.00;;;5.50;;
5945;SDS011;2998;48.206;16.394;2022-10-31T12:04:52;8.87;;;6.07;;
5945;SDS011;2998;48.206;16.394;2022-10-31T12:07:25;8.57;;;6.67;;
5945;SDS011;2998;48.206;16.394;2022-10-31T12:09:53;11.03;;;5.70;;
5945;SDS011;2998;48.206;16.394;2022-10-31T12:12:25;7.23;;;6.10;;
5945;SDS011;2998;48.206;16.394;2022-10-31T12:15:06;9.53;;;6.20;;
5945;SDS011;2998;48.206;16.394;2022-10-31T12:17:51;7.40;;;6.80;;
5945;SDS011;2998;48.206;16.394;2022-10-31T12:20:28;9.00;;;7.90;;
5945;SDS011;2998;48.206;16.394;2022-10-31T12:23:06;8.33;;;7.53;;
5945;SDS011;2998;48.206;16.394;2022-10-31T12:25:39;8.80;;;7.67;;
5945;SDS011;2998;48.206;16.394;2022-10-31T12:28:13;15.50;;;7.80;;
5945;SDS011;2998;48.206;16.394;2022-10-31T12:30:54;8.80;;;6.83;;
5945;SDS011;2998;48.206;16.394;2022-10-31T12:33:32;10.10;;;8.47;;
5945;SDS011;2998;48.206;16.394;2022-10-31T12:36:13;9.33;;;7.70;;
5945;SDS011;2998;48.206;16.394;2022-10-31T12:38:54;8.47;;;7.70;;
5945;SDS011;2998;48.206;16.394;2022-10-31T12:41:34;10.20;;;7.80;;
5945;SDS011;2998;48.206;16.394;2022-10-31T12:44:13;9.63;;;8.53;;
5945;SDS011;2998;48.206;16.394;2022-10-31T12:46:57;14.87;;;8.20;;
5945;SDS011;2998;48.206;16.394;2022-10-31T12:49:37;9.00;;;8.20;;
5945;SDS011;2998;48.206;16.394;2022-10-31T12:52:14;9.90;;;8.17;;
5945;SDS011;2998;48.206;16.394;2022-10-31T12:54:52;9.83;;;7.67;;
5945;SDS011;2998;48.206;16.394;2022-10-31T12:57:30;8.53;;;7.60;;
5945;SDS011;2998;48.206;16.394;2022-10-31T13:00:00;8.97;;;7.23;;
5945;SDS011;2998;48.206;16.394;2022-10-31T13:02:32;9.00;;;8.00;;
5945;SDS011;2998;48.206;16.394;2022-10-31T13:05:04;12.10;;;7.97;;
5945;SDS011;2998;48.206;16.394;2022-10-31T13:07:46;8.80;;;7.90;;
5945;SDS011;2998;48.206;16.394;2022-10-31T13:10:19;22.00;;;10.00;;
5945;SDS011;2998;48.206;16.394;2022-10-31T13:12:53;11.20;;;9.60;;
5945;SDS011;2998;48.206;16.394;2022-10-31T13:15:24;15.97;;;8.90;;
5945;SDS011;2998;48.206;16.394;2022-10-31T13:17:55;9.67;;;8.63;;
5945;SDS011;2998;48.206;16.394;2022-10-31T13:20:25;11.33;;;9.27;;
5945;SDS011;2998;48.206;16.394;2022-10-31T13:22:56;9.57;;;8.50;;
5945;SDS011;2998;48.206;16.394;2022-10-31T13:25:40;9.93;;;8.90;;
5945;SDS011;2998;48.206;16.394;2022-10-31T13:28:12;11.23;;;9.47;;
5945;SDS011;2998;48.206;16.394;2022-10-31T13:30:48;11.50;;;9.37;;
5945;SDS011;2998;48.206;16.394;2022-10-31T13:33:19;11.93;;;10.60;;
5945;SDS011;2998;48.206;16.394;2022-10-31T13:35:54;10.70;;;9.60;;
5945;SDS011;2998;48.206;16.394;2022-10-31T13:38:27;14.20;;;10.20;;
5945;SDS011;2998;48.206;16.394;2022-10-31T13:41:03;15.33;;;10.70;;
5945;SDS011;2998;48.206;16.394;2022-10-31T13:43:42;12.67;;;10.83;;
5945;SDS011;2998;48.206;16.394;2022-10-31T13:46:21;12.17;;;9.80;;
5945;SDS011;2998;48.206;16.394;2022-10-31T13:48:51;11.90;;;10.13;;
5945;SDS011;2998;48.206;16.394;2022-10-31T13:51:24;14.33;;;11.40;;
5945;SDS011;2998;48.206;16.394;2022-10-31T13:53:59;11.40;;;9.80;;
5945;SDS011;2998;48.206;16.394;2022-10-31T13:56:29;12.23;;;10.50;;
5945;SDS011;2998;48.206;16.394;2022-10-31T13:59:00;11.40;;;10.33;;
5945;SDS011;2998;48.206;16.394;2022-10-31T14:01:31;11.90;;;10.03;;
5945;SDS011;2998;48.206;16.394;2022-10-31T14:04:01;15.97;;;10.70;;
5945;SDS011;2998;48.206;16.394;2022-10-31T14:06:44;11.27;;;9.47;;
5945;SDS011;2998;48.206;16.394;2022-10-31T14:09:22;11.50;;;9.60;;
5945;SDS011;2998;48.206;16.394;2022-10-31T14:11:53;17.90;;;8.93;;
5945;SDS011;2998;48.206;16.394;2022-10-31T14:14:23;12.70;;;10.30;;
5945;SDS011;2998;48.206;16.394;2022-10-31T14:16:56;16.43;;;11.00;;
5945;SDS011;2998;48.206;16.394;2022-10-31T14:19:25;18.90;;;11.40;;
5945;SDS011;2998;48.206;16.394;2022-10-31T14:21:53;15.87;;;11.63;;
5945;SDS011;2998;48.206;16.394;2022-10-31T14:24:32;14.20;;;11.93;;
5945;SDS011;2998;48.206;16.394;2022-10-31T14:27:03;18.77;;;12.47;;
5945;SDS011;2998;48.206;16.394;2022-10-31T14:29:47;20.13;;;15.13;;
5945;SDS011;2998;48.206;16.394;2022-10-31T14:32:19;17.07;;;14.43;;
5945;SDS011;2998;48.206;16.394;2022-10-31T14:34:52;14.03;;;10.90;;
5945;SDS011;2998;48.206;16.394;2022-10-31T14:40:23;13.60;;;11.47;;
5945;SDS011;2998;48.206;16.394;2022-10-31T14:45:57;15.33;;;11.57;;
5945;SDS011;2998;48.206;16.394;2022-10-31T14:51:20;10.37;;;9.37;;
5945;SDS011;2998;48.206;16.394;2022-10-31T14:53:49;11.93;;;9.30;;
5945;SDS011;2998;48.206;16.394;2022-10-31T14:56:20;10.70;;;9.60;;
5945;SDS011;2998;48.206;16.394;2022-10-31T14:58:52;12.70;;;10.20;;
5945;SDS011;2998;48.206;16.394;2022-10-31T15:01:22;13.53;;;10.00;;
5945;SDS011;2998;48.206;16.394;2022-10-31T15:03:54;10.20;;;8.40;;
5945;SDS011;2998;48.206;16.394;2022-10-31T15:06:46;10.60;;;8.40;;
5945;SDS011;2998;48.206;16.394;2022-10-31T15:09:21;11.87;;;8.37;;
5945;SDS011;2998;48.206;16.394;2022-10-31T15:11:50;9.03;;;7.63;;
5945;SDS011;2998;48.206;16.394;2022-10-31T15:14:24;10.17;;;7.97;;
5945;SDS011;2998;48.206;16.394;2022-10-31T15:16:53;9.80;;;8.50;;
5945;SDS011;2998;48.206;16.394;2022-10-31T15:19:21;8.80;;;8.10;;
5945;SDS011;2998;48.206;16.394;2022-10-31T15:21:51;13.13;;;7.87;;
5945;SDS011;2998;48.206;16.394;2022-10-31T15:24:22;8.80;;;7.97;;
5945;SDS011;2998;48.206;16.394;2022-10-31T15:26:52;10.00;;;7.70;;